Time;durP1;ratioP1;P1;durP2;ratioP2;P2;SDS_P1;SDS_P2;PMS_P1;PMS_P2;Temp;Humidity;BMP_temperature;BMP_pressure;BME280_temperature;BME280_humidity;BME280_pressure;Samples;Min_cycle;Max_cycle;Signal;HPM_P1;HPM_P2
2023/01/26 00:02:16;;;;;;;4.70;4.30;;;;;;;6.35;62.89;95047.50;5070329;28;20234;-48
2023/01/26 00:04:43;;;;;;;5.00;4.23;;;;;;;6.33;62.92;95052.69;5070475;28;20549;-49
2023/01/26 00:07:10;;;;;;;4.87;4.47;;;;;;;6.34;62.78;95053.50;5070567;28;20186;-47
2023/01/26 00:09:36;;;;;;;4.47;3.77;;;;;;;6.31;62.56;95035.97;5070642;28;20190;-47
2023/01/26 00:12:05;;;;;;;4.80;4.17;;;;;;;6.29;62.83;95041.94;5070448;28;20703;-47
2023/01/26 00:14:48;;;;;;;4.87;4.23;;;;;;;6.34;62.81;95050.97;5070157;28;20199;-47
2023/01/26 00:17:24;;;;;;;5.33;4.03;;;;;;;6.34;62.64;95067.03;5070461;28;20214;-47
2023/01/26 00:19:52;;;;;;;3.90;3.43;;;;;;;6.34;62.72;95061.13;5071064;28;20190;-47
2023/01/26 00:22:19;;;;;;;5.57;4.30;;;;;;;6.34;62.54;95059.41;5071425;28;20217;-48
2023/01/26 00:24:46;;;;;;;3.63;3.33;;;;;;;6.34;62.52;95056.84;5071191;28;20198;-47
2023/01/26 00:27:14;;;;;;;5.57;4.27;;;;;;;6.32;62.60;95058.72;5070264;28;20672;-47
2023/01/26 00:29:41;;;;;;;4.50;3.80;;;;;;;6.30;62.65;95045.28;5070164;28;20248;-46
2023/01/26 00:32:07;;;;;;;4.60;4.20;;;;;;;6.28;62.69;95042.03;5070101;28;20202;-47
2023/01/26 00:34:34;;;;;;;3.90;3.50;;;;;;;6.26;62.58;95047.25;5069804;28;20197;-47
2023/01/26 00:37:01;;;;;;;5.63;3.70;;;;;;;6.25;62.55;95029.53;5070309;28;20187;-46
2023/01/26 00:39:28;;;;;;;4.57;4.00;;;;;;;6.23;62.48;95021.22;5069884;28;20404;-48
2023/01/26 00:42:08;;;;;;;5.23;3.77;;;;;;;6.22;62.49;95029.78;5070288;28;20214;-46
2023/01/26 00:44:38;;;;;;;5.67;4.30;;;;;;;6.19;62.49;95017.28;5069612;28;20648;-47
2023/01/26 00:47:05;;;;;;;4.10;3.63;;;;;;;6.18;62.47;95028.34;5070194;28;20276;-48
2023/01/26 00:49:32;;;;;;;4.53;3.80;;;;;;;6.16;62.51;95030.16;5068912;28;20186;-45
2023/01/26 00:51:59;;;;;;;6.23;4.37;;;;;;;6.14;62.50;95017.59;5069897;28;20194;-46
2023/01/26 00:54:25;;;;;;;5.07;4.00;;;;;;;6.12;62.37;95026.19;5069701;28;20186;-47
2023/01/26 00:56:52;;;;;;;4.80;4.03;;;;;;;6.11;62.37;95027.13;5070112;28;20182;-47
2023/01/26 00:59:19;;;;;;;4.23;3.70;;;;;;;6.11;62.38;95002.53;5069652;28;20201;-47
2023/01/26 01:01:48;;;;;;;5.33;4.27;;;;;;;6.11;62.40;95010.16;5072698;28;20229;-48
2023/01/26 01:04:15;;;;;;;4.87;3.90;;;;;;;6.12;62.34;95003.34;5083161;28;20185;-45
2023/01/26 01:06:43;;;;;;;4.73;4.23;;;;;;;6.13;62.34;94997.34;5069364;28;20741;-49
2023/01/26 01:09:09;;;;;;;4.97;4.17;;;;;;;6.13;62.19;95004.97;5069655;28;20182;-48
2023/01/26 01:11:36;;;;;;;5.03;4.27;;;;;;;6.12;62.35;95000.81;5069868;28;20232;-47
2023/01/26 01:14:04;;;;;;;5.50;4.10;;;;;;;6.12;62.12;95009.25;5069580;28;20609;-47
2023/01/26 01:16:31;;;;;;;4.53;4.00;;;;;;;6.11;62.17;95001.75;5069412;28;20182;-48
2023/01/26 01:18:59;;;;;;;6.33;4.20;;;;;;;6.09;62.27;95001.84;5069269;28;20205;-46
2023/01/26 01:21:26;;;;;;;4.77;4.27;;;;;;;6.08;62.30;94995.13;5069360;28;20194;-47
2023/01/26 01:23:53;;;;;;;4.07;3.67;;;;;;;6.07;62.30;94997.78;5069111;28;20225;-47
2023/01/26 01:26:20;;;;;;;5.13;4.10;;;;;;;6.02;62.18;94998.91;5049071;28;20260;-48
2023/01/26 01:28:46;;;;;;;4.57;3.80;;;;;;;6.01;62.28;94982.06;5060736;28;20239;-48
2023/01/26 01:31:16;;;;;;;5.43;3.77;;;;;;;6.08;62.11;94997.66;5069017;28;20324;-47
2023/01/26 01:33:43;;;;;;;5.23;4.30;;;;;;;6.02;61.98;94978.59;5069365;28;20271;-46
2023/01/26 01:36:16;;;;;;;4.80;4.10;;;;;;;6.07;62.04;94993.50;5068657;28;20202;-48
2023/01/26 01:38:44;;;;;;;5.03;4.00;;;;;;;6.05;62.10;94997.09;5069455;28;20190;-48
2023/01/26 01:41:11;;;;;;;4.70;4.30;;;;;;;6.03;61.94;94989.56;5068585;28;20201;-47
2023/01/26 01:43:38;;;;;;;5.43;4.13;;;;;;;6.05;62.02;94992.00;5069159;28;20234;-47
2023/01/26 01:46:10;;;;;;;4.50;3.90;;;;;;;6.04;61.87;94983.56;5068967;28;20257;-48
2023/01/26 01:48:46;;;;;;;4.40;3.73;;;;;;;6.01;62.02;94987.13;5068854;28;20181;-48
2023/01/26 01:51:18;;;;;;;4.63;4.07;;;;;;;6.00;61.98;94987.22;5068338;28;20201;-47
2023/01/26 01:53:48;;;;;;;4.73;3.97;;;;;;;5.89;61.93;94956.66;5068842;28;20182;-47
2023/01/26 01:56:20;;;;;;;4.77;4.10;;;;;;;6.02;61.91;94978.59;5068675;28;20198;-49
2023/01/26 01:58:49;;;;;;;5.27;3.90;;;;;;;6.02;61.99;94978.59;5068840;28;20198;-48
2023/01/26 02:01:16;;;;;;;5.13;4.07;;;;;;;6.04;61.82;94975.94;5068330;28;20222;-48
2023/01/26 02:03:46;;;;;;;4.30;3.90;;;;;;;6.02;61.80;94976.06;5068540;28;20702;-48
2023/01/26 02:06:18;;;;;;;5.00;3.87;;;;;;;5.98;61.79;94967.00;5068323;28;20186;-48
2023/01/26 02:08:48;;;;;;;4.93;4.07;;;;;;;6.00;61.66;94990.59;5068804;28;20217;-48
2023/01/26 02:11:18;;;;;;;5.63;4.07;;;;;;;6.00;61.74;94967.75;5068628;28;20200;-47
2023/01/26 02:13:48;;;;;;;3.87;3.50;;;;;;;5.99;61.52;94965.28;5068870;28;20228;-48
2023/01/26 02:16:15;;;;;;;4.57;3.97;;;;;;;5.99;61.51;94963.56;5072017;28;20221;-48
2023/01/26 02:18:42;;;;;;;3.73;3.30;;;;;;;5.99;61.41;94957.66;5073097;28;20190;-47
2023/01/26 02:21:11;;;;;;;5.57;4.50;;;;;;;5.98;61.60;94956.88;5071888;28;20190;-46
2023/01/26 02:23:50;;;;;;;4.47;4.00;;;;;;;5.91;61.51;94935.31;5072725;28;20225;-47
2023/01/26 02:26:20;;;;;;;4.53;3.63;;;;;;;5.97;61.58;94932.41;5072598;28;20210;-49
2023/01/26 02:28:47;;;;;;;4.17;3.77;;;;;;;5.97;61.54;94929.06;5072731;28;20202;-47
2023/01/26 02:31:15;;;;;;;4.07;3.53;;;;;;;5.90;61.48;94915.91;5072803;28;20190;-47
2023/01/26 02:33:43;;;;;;;3.83;3.37;;;;;;;5.94;61.57;94919.91;5072328;28;20202;-47
2023/01/26 02:36:17;;;;;;;4.73;3.80;;;;;;;5.93;61.51;94923.38;5071938;28;20205;-47
2023/01/26 02:38:46;;;;;;;4.13;3.70;;;;;;;5.93;61.51;94932.72;5072565;28;20724;-47
2023/01/26 02:42:37;;;;;;;5.27;3.80;;;;;;;5.89;61.39;94918.56;5072664;28;20182;-47
2023/01/26 02:44:07;;;;;;;5.17;3.73;;;;;;;5.93;61.45;94915.75;5072407;28;20218;-48
2023/01/26 02:46:34;;;;;;;5.03;3.67;;;;;;;5.90;61.58;94912.56;5072166;28;20274;-48
2023/01/26 02:51:45;;;;;;;4.37;3.33;;;;;;;5.88;61.42;94892.38;5072159;28;20247;-48
2023/01/26 02:55:21;;;;;;;3.87;3.57;;;;;;;5.91;61.32;94909.13;5072202;28;20194;-47
2023/01/26 02:56:58;;;;;;;3.77;3.43;;;;;;;5.90;61.23;94898.16;5072151;28;20659;-47
2023/01/26 02:59:26;;;;;;;4.27;3.87;;;;;;;5.73;61.56;94871.38;5072271;28;20197;-48
2023/01/26 03:01:55;;;;;;;4.90;3.90;;;;;;;5.90;61.38;94897.34;5071597;28;20253;-49
2023/01/26 03:04:22;;;;;;;5.00;3.67;;;;;;;5.88;61.42;94894.13;5071823;28;20700;-47
2023/01/26 03:06:49;;;;;;;4.53;4.10;;;;;;;5.85;61.49;94890.06;5072461;28;20558;-49
2023/01/26 03:09:15;;;;;;;4.43;3.50;;;;;;;5.86;61.31;94896.75;5074150;28;20195;-48
2023/01/26 03:11:42;;;;;;;4.03;3.60;;;;;;;5.82;61.39;94884.38;5072605;28;20194;-51
2023/01/26 03:14:09;;;;;;;3.43;3.13;;;;;;;5.65;61.28;94847.44;5073186;28;20252;-48
2023/01/26 03:16:38;;;;;;;4.60;3.70;;;;;;;5.83;61.25;94879.22;5071555;28;20187;-47
2023/01/26 03:27:26;;;;;;;3.87;3.30;;;;;;;5.81;61.46;94857.38;5070577;28;20197;-46
2023/01/26 03:29:53;;;;;;;5.63;3.60;;;;;;;5.78;61.32;94853.31;5071943;28;20250;-48
2023/01/26 03:32:22;;;;;;;5.60;4.23;;;;;;;5.81;61.20;94865.78;5071326;28;20198;-48
2023/01/26 03:34:48;;;;;;;4.03;3.57;;;;;;;5.81;61.21;94865.00;5071143;28;20206;-49
2023/01/26 03:37:20;;;;;;;4.40;3.60;;;;;;;5.81;61.24;94857.38;5051462;28;20198;-48
2023/01/26 03:56:20;;;;;;;3.33;3.03;;;;;;;5.78;61.21;94840.63;5070919;28;20181;-50
2023/01/26 03:58:49;;;;;;;4.33;3.80;;;;;;;5.69;61.25;94829.38;5071310;28;20182;-48
2023/01/26 04:01:18;;;;;;;3.60;3.30;;;;;;;5.78;61.23;94838.09;5070672;28;20671;-48
2023/01/26 04:09:18;;;;;;;4.00;3.60;;;;;;;5.78;61.02;94833.81;5071216;28;20190;-48
2023/01/26 04:11:45;;;;;;;5.33;3.93;;;;;;;5.82;61.14;94834.41;5070512;28;20194;-47
2023/01/26 04:22:27;;;;;;;4.27;3.87;;;;;;;5.78;61.17;94803.38;5070450;28;20721;-48
2023/01/26 04:24:55;;;;;;;4.17;3.73;;;;;;;5.79;61.05;94788.97;5070304;28;20222;-48
2023/01/26 04:27:22;;;;;;;3.97;3.63;;;;;;;5.80;60.94;94798.22;5070837;28;20697;-48
2023/01/26 04:29:49;;;;;;;3.87;3.13;;;;;;;5.79;61.18;94789.78;5070615;28;20244;-51
2023/01/26 04:32:16;;;;;;;4.17;3.47;;;;;;;5.78;61.24;94783.06;5070016;28;20633;-48
2023/01/26 04:34:44;;;;;;;3.73;3.43;;;;;;;5.79;61.27;94794.84;5070098;28;20206;-48
2023/01/26 04:37:11;;;;;;;4.47;3.73;;;;;;;5.79;61.20;94786.44;5070068;28;20198;-47
2023/01/26 04:39:37;;;;;;;3.50;3.20;;;;;;;5.68;61.20;94779.56;5070069;28;20564;-48
2023/01/26 04:42:04;;;;;;;3.20;2.90;;;;;;;5.81;61.29;94791.41;5069961;28;20602;-49
2023/01/26 04:44:31;;;;;;;4.00;3.63;;;;;;;5.81;61.28;94796.47;5072307;28;20213;-48
2023/01/26 04:46:58;;;;;;;3.47;3.17;;;;;;;5.81;61.15;94799.81;5071729;28;20190;-47
2023/01/26 04:49:25;;;;;;;5.13;3.60;;;;;;;5.78;61.06;94813.50;5070975;28;20186;-49
2023/01/26 04:51:53;;;;;;;4.23;3.83;;;;;;;5.82;61.21;94803.16;5069048;28;20194;-46
2023/01/26 04:54:20;;;;;;;3.93;3.53;;;;;;;5.84;61.04;94804.69;5070090;28;20254;-46
2023/01/26 04:56:46;;;;;;;5.13;4.13;;;;;;;5.84;60.91;94811.50;5069689;28;20637;-48
2023/01/26 04:59:13;;;;;;;4.37;3.57;;;;;;;5.82;60.94;94805.69;5070285;28;20198;-48
2023/01/26 05:01:40;;;;;;;4.70;3.73;;;;;;;5.59;61.02;94771.78;5069474;28;20225;-47
2023/01/26 05:04:08;;;;;;;3.43;3.13;;;;;;;5.82;61.02;94815.84;5069588;28;20671;-47
2023/01/26 05:06:35;;;;;;;3.90;3.50;;;;;;;5.82;61.16;94809.03;5069760;28;20205;-48
2023/01/26 05:09:03;;;;;;;7.10;4.03;;;;;;;5.82;60.98;94800.63;5069490;28;20195;-47
2023/01/26 05:11:30;;;;;;;4.50;3.80;;;;;;;5.81;61.01;94799.81;5069464;28;20251;-46
2023/01/26 05:13:57;;;;;;;4.60;3.83;;;;;;;5.82;60.98;94796.34;5069365;28;20259;-49
2023/01/26 05:16:24;;;;;;;4.13;3.73;;;;;;;5.84;60.95;94796.28;5069242;28;20179;-47
2023/01/26 05:18:51;;;;;;;4.20;3.50;;;;;;;5.65;60.89;94761.19;5069183;28;20182;-47
2023/01/26 05:21:18;;;;;;;3.97;3.43;;;;;;;5.85;60.97;94803.75;5069032;28;20194;-46
2023/01/26 05:23:44;;;;;;;3.57;3.27;;;;;;;5.86;60.86;94800.31;5069328;28;20228;-46
2023/01/26 05:26:13;;;;;;;4.17;3.73;;;;;;;5.86;60.83;94796.97;5068969;28;20691;-49
2023/01/26 05:28:39;;;;;;;4.87;3.87;;;;;;;5.87;60.83;94799.41;5069115;28;20206;-46
2023/01/26 05:31:06;;;;;;;4.07;3.67;;;;;;;5.86;60.80;94795.22;5068922;28;20190;-48
2023/01/26 05:33:33;;;;;;;3.63;3.33;;;;;;;5.86;60.73;94782.53;5049013;28;20207;-47
2023/01/26 05:36:04;;;;;;;3.37;3.10;;;;;;;5.88;60.80;94790.88;5049457;28;20214;-46
2023/01/26 05:38:31;;;;;;;3.90;3.47;;;;;;;5.90;60.71;94775.53;5049226;28;20191;-48
2023/01/26 05:40:58;;;;;;;3.60;3.30;;;;;;;5.90;60.66;94785.69;5059015;28;20192;-48
2023/01/26 05:43:26;;;;;;;4.27;3.63;;;;;;;5.90;60.72;94791.56;5069039;28;20216;-47
2023/01/26 05:45:53;;;;;;;3.57;3.27;;;;;;;5.90;60.83;94780.59;5068420;28;20201;-48
2023/01/26 05:48:19;;;;;;;4.20;3.60;;;;;;;5.91;60.81;94782.22;5069167;28;20216;-46
2023/01/26 05:50:46;;;;;;;4.13;3.67;;;;;;;5.92;60.68;94791.50;5068606;28;20182;-48
2023/01/26 05:53:13;;;;;;;3.70;3.40;;;;;;;5.90;60.71;94793.28;5068990;28;20683;-47
2023/01/26 05:55:40;;;;;;;4.30;3.90;;;;;;;5.87;60.68;94785.88;5068892;28;20203;-47
2023/01/26 05:58:07;;;;;;;4.33;3.70;;;;;;;5.84;60.76;94789.47;5069795;28;20186;-47
2023/01/26 06:00:35;;;;;;;5.80;3.47;;;;;;;5.90;60.79;94789.03;5070715;28;20225;-47
2023/01/26 06:03:02;;;;;;;11.83;4.03;;;;;;;6.32;94.35;94769.19;5070859;28;20243;-46
2023/01/26 06:05:29;;;;;;;3.63;3.00;;;;;;;6.91;90.21;94788.59;5070491;28;20244;-47
2023/01/26 06:07:55;;;;;;;4.60;3.87;;;;;;;7.05;83.59;94785.88;5068663;28;20618;-48
2023/01/26 06:10:22;;;;;;;6.17;3.60;;;;;;;7.04;78.54;94784.25;5068746;28;20190;-50
2023/01/26 06:12:49;;;;;;;5.17;4.23;;;;;;;7.39;99.63;94745.19;5069168;28;20198;-52
2023/01/26 06:15:16;;;;;;;6.53;4.10;;;;;;;8.57;100.00;94766.50;5069080;28;20197;-46
2023/01/26 06:17:44;;;;;;;7.03;4.07;;;;;;;9.54;98.13;94760.16;5067742;28;20694;-46
2023/01/26 06:20:13;;;;;;;5.27;2.93;;;;;;;10.32;93.24;94763.69;5068838;28;20194;-46
2023/01/26 06:22:40;;;;;;;4.43;3.20;;;;;;;11.02;89.31;94765.09;5068707;28;20201;-46
2023/01/26 06:25:07;;;;;;;4.50;3.73;;;;;;;11.54;86.24;94762.88;5068887;28;20228;-49
2023/01/26 06:27:34;;;;;;;5.67;4.40;;;;;;;11.42;82.96;94745.28;5067722;28;20271;-49
2023/01/26 06:30:01;;;;;;;4.60;3.60;;;;;;;11.42;77.14;94768.34;5068264;28;20259;-46
2023/01/26 06:32:29;;;;;;;5.33;4.23;;;;;;;11.16;72.96;94753.59;5067778;28;20194;-48
2023/01/26 06:34:57;;;;;;;8.90;4.50;;;;;;;10.88;70.38;94755.31;5068786;28;20202;-48
2023/01/26 06:37:24;;;;;;;4.37;3.97;;;;;;;10.61;69.35;94755.19;5067985;28;20191;-49
2023/01/26 06:39:51;;;;;;;5.40;4.90;;;;;;;10.36;68.29;94754.00;5068086;28;20201;-46
2023/01/26 06:42:17;;;;;;;6.23;4.67;;;;;;;10.07;67.93;94749.66;5067844;28;20198;-48
2023/01/26 06:44:44;;;;;;;4.90;4.40;;;;;;;9.86;67.44;94749.75;5068163;28;20217;-46
2023/01/26 06:47:12;;;;;;;6.00;5.37;;;;;;;9.61;67.62;94763.00;5057431;28;20194;-48
2023/01/26 06:49:39;;;;;;;6.13;4.70;;;;;;;9.37;67.38;94758.19;5067814;28;20182;-47
2023/01/26 06:52:22;;;;;;;5.80;5.30;;;;;;;9.17;67.50;94755.59;5065607;28;20683;-48
2023/01/26 06:54:50;;;;;;;7.87;5.93;;;;;;;8.93;67.26;94752.50;5068588;28;20248;-47
2023/01/26 06:57:17;;;;;;;6.13;5.20;;;;;;;8.77;67.54;94753.78;5068282;28;20190;-47
2023/01/26 06:59:43;;;;;;;6.33;5.40;;;;;;;8.61;67.35;94742.41;5071030;28;20191;-47
2023/01/26 07:02:17;;;;;;;5.90;5.30;;;;;;;8.48;67.76;94742.56;5089852;28;20233;-47
2023/01/26 07:04:44;;;;;;;5.37;4.83;;;;;;;8.36;67.91;94735.88;5069319;28;21026;-49
2023/01/26 07:07:12;;;;;;;7.20;6.03;;;;;;;8.24;68.06;94751.22;5069896;28;20194;-48
2023/01/26 07:09:39;;;;;;;6.10;5.50;;;;;;;8.11;68.02;94734.47;5071674;28;20195;-46
2023/01/26 07:12:06;;;;;;;6.87;5.60;;;;;;;7.98;68.16;94720.16;5071921;28;20232;-46
2023/01/26 07:14:33;;;;;;;6.53;5.90;;;;;;;7.93;67.65;94729.91;5071894;28;20187;-46
2023/01/26 07:17:01;;;;;;;6.27;5.67;;;;;;;7.79;67.37;94725.09;5071648;28;20240;-47
2023/01/26 07:19:29;;;;;;;6.73;6.03;;;;;;;7.84;66.97;94748.44;5071699;28;20293;-46
2023/01/26 07:21:56;;;;;;;7.47;6.07;;;;;;;7.75;66.62;94737.25;5071722;28;20194;-48
2023/01/26 07:24:24;;;;;;;7.73;5.97;;;;;;;7.75;66.19;94732.16;5070295;28;20308;-48
2023/01/26 07:26:51;;;;;;;8.37;6.00;;;;;;;7.60;65.82;94704.53;5071508;28;20569;-46
2023/01/26 07:29:17;;;;;;;7.57;6.60;;;;;;;7.71;65.61;94733.31;5071633;28;20191;-48
2023/01/26 07:31:44;;;;;;;7.83;5.67;;;;;;;7.74;64.93;94719.56;5071596;28;20182;-49
2023/01/26 07:34:11;;;;;;;6.93;5.83;;;;;;;7.76;64.76;94723.59;5071368;28;20193;-47
2023/01/26 07:36:38;;;;;;;7.63;5.73;;;;;;;7.76;64.62;94723.59;5071795;28;20187;-47
2023/01/26 07:39:05;;;;;;;6.93;6.20;;;;;;;7.77;64.41;94719.31;5071030;28;20198;-46
2023/01/26 07:41:34;;;;;;;7.60;6.40;;;;;;;7.71;63.97;94714.69;5070877;28;20190;-46
2023/01/26 07:44:01;;;;;;;7.57;5.90;;;;;;;7.76;63.73;94718.50;5070654;28;20264;-46
2023/01/26 07:46:27;;;;;;;6.90;5.97;;;;;;;7.74;63.44;94714.47;5071015;28;20554;-48
2023/01/26 07:48:54;;;;;;;6.23;5.53;;;;;;;7.75;63.26;94719.44;5070769;28;20194;-47
2023/01/26 07:51:21;;;;;;;7.57;5.80;;;;;;;7.75;62.98;94719.44;5070418;28;20279;-47
2023/01/26 07:53:48;;;;;;;7.63;5.77;;;;;;;7.76;62.86;94728.69;5070154;28;20189;-47
2023/01/26 07:56:19;;;;;;;7.73;5.63;;;;;;;7.76;62.70;94727.88;5070105;28;20193;-49
2023/01/26 07:58:51;;;;;;;8.57;6.33;;;;;;;7.73;62.33;94725.59;5071214;28;20194;-48
2023/01/26 08:01:18;;;;;;;7.53;6.10;;;;;;;7.73;62.45;94723.84;5071058;28;20230;-46
2023/01/26 08:03:46;;;;;;;6.97;5.63;;;;;;;7.54;62.15;94688.81;5051268;28;20202;-46
2023/01/26 08:06:13;;;;;;;7.47;5.80;;;;;;;7.72;62.42;94717.13;5050754;28;20226;-46
2023/01/26 08:08:40;;;;;;;5.70;5.03;;;;;;;7.59;62.16;94697.84;5054268;28;20186;-46
2023/01/26 08:11:09;;;;;;;7.30;5.33;;;;;;;7.72;61.84;94718.84;5070649;28;20186;-45
2023/01/26 08:13:36;;;;;;;7.83;5.80;;;;;;;7.73;61.75;94718.75;5070508;28;20277;-46
2023/01/26 08:16:08;;;;;;;9.10;5.93;;;;;;;7.71;61.63;94701.97;5070753;28;20615;-47
2023/01/26 08:18:35;;;;;;;6.47;5.60;;;;;;;7.70;61.57;94715.63;5070832;28;20265;-45
2023/01/26 08:21:01;;;;;;;6.00;5.40;;;;;;;7.70;61.43;94692.72;5070425;28;20201;-47
2023/01/26 08:23:29;;;;;;;6.97;5.37;;;;;;;7.69;61.42;94699.56;5070721;28;20220;-46
2023/01/26 08:26:00;;;;;;;6.77;5.23;;;;;;;7.70;61.25;94697.81;5070473;28;20838;-46
2023/01/26 08:28:27;;;;;;;6.47;5.13;;;;;;;7.67;61.11;94683.59;5071253;28;20273;-46
2023/01/26 08:30:54;;;;;;;6.43;5.50;;;;;;;7.66;61.06;94696.44;5070848;28;20194;-46
2023/01/26 08:33:24;;;;;;;7.50;5.07;;;;;;;7.70;61.06;94696.09;5070836;28;20576;-48
2023/01/26 08:35:51;;;;;;;5.67;5.13;;;;;;;7.70;61.03;94695.28;5070717;28;20194;-46
2023/01/26 08:38:17;;;;;;;7.10;6.10;;;;;;;7.69;60.75;94701.31;5070622;28;20288;-47
2023/01/26 08:40:44;;;;;;;5.50;4.67;;;;;;;7.59;60.76;94665.56;5070917;28;20213;-46
2023/01/26 08:43:12;;;;;;;5.97;5.30;;;;;;;7.71;60.76;94681.63;5070550;28;20191;-46
2023/01/26 08:45:38;;;;;;;7.13;4.93;;;;;;;7.71;60.64;94684.97;5070705;28;20711;-46
2023/01/26 08:48:06;;;;;;;6.27;5.00;;;;;;;7.74;60.18;94684.72;5071474;28;20189;-46
2023/01/26 08:50:35;;;;;;;7.13;5.60;;;;;;;7.78;60.36;94680.22;5073603;28;20179;-48
2023/01/26 08:53:02;;;;;;;7.07;4.70;;;;;;;7.79;60.21;94687.72;5072445;28;20868;-46
2023/01/26 08:55:31;;;;;;;5.57;5.07;;;;;;;7.83;59.97;94697.66;5073106;28;20269;-47
2023/01/26 08:57:59;;;;;;;6.30;4.77;;;;;;;7.82;59.83;94696.06;5071400;28;20649;-48
2023/01/26 09:00:26;;;;;;;5.27;4.40;;;;;;;7.82;59.78;94684.13;5068899;28;20222;-47
2023/01/26 09:02:59;;;;;;;5.13;4.63;;;;;;;7.85;59.86;94680.53;5068813;28;20233;-48
2023/01/26 09:05:26;;;;;;;5.07;4.60;;;;;;;7.88;59.95;94682.84;5067359;28;20225;-49
2023/01/26 09:07:55;;;;;;;5.20;4.20;;;;;;;7.89;59.38;94681.91;5068195;28;20660;-49
2023/01/26 09:10:22;;;;;;;4.73;4.20;;;;;;;7.79;59.66;94674.19;5068358;28;20706;-47
2023/01/26 09:12:49;;;;;;;5.27;4.17;;;;;;;7.92;59.56;94691.84;5066894;28;20641;-49
2023/01/26 09:15:16;;;;;;;4.73;4.10;;;;;;;7.91;59.35;94683.41;5068088;28;20254;-47
2023/01/26 09:17:43;;;;;;;4.43;4.03;;;;;;;7.93;59.07;94678.97;5069427;28;20218;-49
2023/01/26 09:20:11;;;;;;;5.73;3.67;;;;;;;7.66;59.10;94651.44;5067368;28;20281;-46
2023/01/26 09:22:38;;;;;;;4.10;3.70;;;;;;;7.87;59.10;94666.75;5067846;28;20186;-47
2023/01/26 09:25:07;;;;;;;4.10;3.70;;;;;;;7.87;59.06;94664.22;5063608;28;20229;-46
2023/01/26 09:27:34;;;;;;;4.90;3.67;;;;;;;7.89;58.91;94672.50;5065652;28;20199;-46
2023/01/26 09:30:02;;;;;;;4.40;4.00;;;;;;;7.84;58.92;94659.34;5067953;28;20194;-46
2023/01/26 09:32:28;;;;;;;4.17;3.77;;;;;;;7.75;58.87;94643.06;5066068;28;20198;-47
2023/01/26 09:34:55;;;;;;;4.17;3.77;;;;;;;7.86;58.96;94651.56;5066406;28;20198;-48
2023/01/26 09:37:22;;;;;;;4.67;3.50;;;;;;;7.82;59.05;94645.94;5068000;28;20190;-48
2023/01/26 09:39:49;;;;;;;3.37;3.07;;;;;;;7.83;58.72;94634.81;5068246;28;20194;-48
2023/01/26 09:42:32;;;;;;;4.23;3.80;;;;;;;7.80;58.75;94646.06;5068473;28;20197;-47
2023/01/26 09:45:12;;;;;;;4.10;3.67;;;;;;;7.86;58.71;94652.41;5066503;28;20206;-46
2023/01/26 09:47:53;;;;;;;3.43;3.07;;;;;;;7.86;58.55;94654.13;5068261;28;20190;-46
2023/01/26 09:50:24;;;;;;;3.87;3.43;;;;;;;7.87;58.69;94660.84;5067578;28;20210;-45
2023/01/26 09:52:56;;;;;;;3.57;3.20;;;;;;;7.88;58.61;94642.91;5067457;28;20214;-48
2023/01/26 09:55:24;;;;;;;4.70;3.37;;;;;;;7.88;58.76;94632.72;5064801;28;20191;-46
2023/01/26 09:57:56;;;;;;;3.87;3.57;;;;;;;7.93;58.38;94635.69;5068499;28;20191;-46
2023/01/26 10:00:28;;;;;;;3.73;3.43;;;;;;;7.95;58.57;94636.41;5067629;28;20236;-48
2023/01/26 10:03:10;;;;;;;3.90;3.60;;;;;;;7.46;58.38;94550.41;5066781;28;20289;-48
2023/01/26 10:05:45;;;;;;;3.50;3.20;;;;;;;7.84;58.38;94605.09;5066100;28;20257;-48
2023/01/26 10:08:14;;;;;;;3.90;3.50;;;;;;;8.02;58.34;94622.22;5067263;28;20209;-46
2023/01/26 10:10:47;;;;;;;5.13;3.80;;;;;;;8.02;58.26;94622.22;5068540;28;20186;-48
2023/01/26 10:13:17;;;;;;;3.10;2.80;;;;;;;8.01;58.26;94617.25;5068090;28;20193;-45
2023/01/26 10:15:47;;;;;;;3.50;3.20;;;;;;;8.00;58.06;94602.94;5064444;28;20201;-47
2023/01/26 10:18:19;;;;;;;3.63;3.10;;;;;;;8.09;58.22;94599.63;5067192;28;20190;-47
2023/01/26 10:20:49;;;;;;;3.70;3.40;;;;;;;8.12;58.06;94579.00;5064468;28;20198;-48
2023/01/26 10:23:20;;;;;;;4.70;3.13;;;;;;;8.16;58.08;94584.63;5067281;28;20339;-46
2023/01/26 10:25:47;;;;;;;4.53;2.93;;;;;;;8.16;57.87;94564.25;5066550;28;20265;-47
2023/01/26 10:28:19;;;;;;;4.57;3.60;;;;;;;8.16;57.80;94572.75;5067201;28;20193;-49
2023/01/26 10:30:48;;;;;;;3.47;3.17;;;;;;;8.15;57.75;94560.09;5067163;28;20660;-47
2023/01/26 10:33:18;;;;;;;3.40;3.10;;;;;;;8.15;57.74;94543.06;5066354;28;20562;-46
2023/01/26 10:35:45;;;;;;;3.80;3.40;;;;;;;8.21;57.55;94544.34;5066843;28;20547;-46
2023/01/26 10:38:38;;;;;;;3.40;3.07;;;;;;;8.11;57.55;94513.69;5069659;28;20194;-47
2023/01/26 10:41:06;;;;;;;3.63;3.33;;;;;;;8.23;57.54;94525.44;5069873;28;20205;-46
2023/01/26 10:43:37;;;;;;;3.20;3.00;;;;;;;8.23;57.33;94522.88;5069307;28;20202;-49
2023/01/26 10:46:04;;;;;;;5.60;3.10;;;;;;;8.29;57.39;94511.38;5065570;28;20275;-46
2023/01/26 10:48:33;;;;;;;3.90;3.37;;;;;;;8.27;57.29;94491.13;5067390;28;20598;-46
2023/01/26 10:51:16;;;;;;;3.33;3.03;;;;;;;8.39;57.18;94507.16;5070258;28;20194;-46
2023/01/26 10:53:43;;;;;;;3.73;3.30;;;;;;;8.38;57.07;94499.66;5066313;28;20195;-46
2023/01/26 10:56:15;;;;;;;3.70;3.40;;;;;;;8.46;56.89;94504.88;5071555;28;20244;-46
2023/01/26 10:58:48;;;;;;;4.23;3.03;;;;;;;8.51;56.94;94493.38;5066993;28;20205;-47
2023/01/26 11:01:17;;;;;;;3.20;2.80;;;;;;;8.57;56.85;94484.41;5069073;28;20241;-46
2023/01/26 11:04:00;;;;;;;3.73;3.10;;;;;;;8.58;56.69;94483.47;5070920;28;20200;-47
2023/01/26 11:06:29;;;;;;;3.30;3.00;;;;;;;8.61;56.73;94465.38;5068858;28;20329;-48
2023/01/26 11:09:09;;;;;;;4.23;3.03;;;;;;;8.62;56.55;94463.63;5067954;28;20209;-47
2023/01/26 11:11:35;;;;;;;3.00;2.80;;;;;;;8.74;56.52;94473.56;5068682;28;20602;-49
2023/01/26 11:14:16;;;;;;;3.40;3.10;;;;;;;8.77;56.44;94462.31;5068680;28;20197;-50
2023/01/26 11:16:47;;;;;;;3.30;3.00;;;;;;;8.79;56.32;94458.69;5069549;28;20660;-46
2023/01/26 11:19:24;;;;;;;3.17;2.83;;;;;;;8.78;56.28;94451.97;5069498;28;20267;-48
2023/01/26 11:21:56;;;;;;;2.87;2.67;;;;;;;8.88;56.23;94451.97;5068412;28;20201;-49
2023/01/26 11:24:27;;;;;;;3.53;3.23;;;;;;;8.92;56.29;94455.88;5070119;28;20198;-49
2023/01/26 11:27:29;;;;;;;6.97;3.37;;;;;;;8.97;56.27;94446.06;5069910;28;20225;-47
2023/01/26 11:30:22;;;;;;;3.47;2.80;;;;;;;9.04;55.95;94443.81;5069140;28;20186;-47
2023/01/26 11:32:58;;;;;;;3.23;3.03;;;;;;;9.09;55.88;94433.19;5065165;28;20609;-47
2023/01/26 11:35:32;;;;;;;3.00;2.70;;;;;;;9.16;55.87;94431.72;5070417;28;20201;-47
2023/01/26 11:38:11;;;;;;;5.73;2.87;;;;;;;9.22;55.71;94429.41;5068435;28;20210;-47
2023/01/26 11:40:46;;;;;;;3.07;2.77;;;;;;;9.25;55.36;94415.59;5067197;28;20198;-49
2023/01/26 11:43:27;;;;;;;3.63;2.97;;;;;;;9.39;55.60;94425.38;5068916;28;20197;-47
2023/01/26 11:46:21;;;;;;;2.80;2.60;;;;;;;9.44;55.45;94425.75;5065639;28;20225;-45
2023/01/26 11:49:03;;;;;;;3.20;2.90;;;;;;;9.43;55.48;94411.41;5063445;28;20193;-47
2023/01/26 11:51:43;;;;;;;3.20;2.90;;;;;;;9.49;55.38;94426.16;5070096;28;20277;-48
2023/01/26 11:54:34;;;;;;;4.57;3.10;;;;;;;9.47;55.41;94422.16;5067872;28;20255;-46
2023/01/26 11:57:13;;;;;;;3.30;3.00;;;;;;;9.21;55.37;94383.66;5068394;28;20201;-46
2023/01/26 11:59:46;;;;;;;3.63;3.33;;;;;;;9.39;55.51;94420.28;5070359;28;20631;-46
2023/01/26 12:02:27;;;;;;;3.30;3.00;;;;;;;9.33;55.64;94410.63;5068375;28;20279;-47
2023/01/26 12:04:56;;;;;;;3.67;3.37;;;;;;;9.27;55.62;94399.19;5070090;28;20749;-47
2023/01/26 12:07:29;;;;;;;3.80;3.27;;;;;;;8.85;55.51;94341.78;5066283;28;20257;-47
2023/01/26 12:09:56;;;;;;;3.27;2.97;;;;;;;9.13;55.62;94399.63;5067697;28;20273;-47
2023/01/26 12:12:33;;;;;;;3.60;3.13;;;;;;;9.14;55.94;94387.69;5069820;28;20193;-46
2023/01/26 12:15:05;;;;;;;3.43;3.00;;;;;;;9.09;55.99;94384.72;5066886;28;20197;-46
2023/01/26 12:17:43;;;;;;;3.13;2.83;;;;;;;8.85;55.92;94341.78;5069830;28;20237;-48
2023/01/26 12:20:23;;;;;;;3.43;3.13;;;;;;;8.98;56.16;94367.81;5066753;28;20198;-48
2023/01/26 12:22:55;;;;;;;3.30;3.00;;;;;;;8.94;55.79;94359.66;5068755;28;20179;-47
2023/01/26 12:25:29;;;;;;;4.83;3.50;;;;;;;8.89;56.03;94356.69;5069504;28;20252;-47
2023/01/26 12:28:04;;;;;;;3.37;3.07;;;;;;;8.84;56.06;94356.28;5069588;28;20197;-46
2023/01/26 12:30:40;;;;;;;3.77;3.50;;;;;;;8.84;56.06;94358.84;5065486;28;20205;-47
2023/01/26 12:33:10;;;;;;;3.37;3.07;;;;;;;8.77;55.96;94338.19;5066638;28;20201;-48
2023/01/26 12:35:59;;;;;;;3.60;3.30;;;;;;;8.80;55.99;94345.56;5065464;28;20186;-49